Time;durP1;ratioP1;P1;durP2;ratioP2;P2;SDS_P1;SDS_P2;PMS_P1;PMS_P2;Temp;Humidity;BMP_temperature;BMP_pressure;BME280_temperature;BME280_humidity;BME280_pressure;Samples;Min_cycle;Max_cycle;Signal;HPM_P1;HPM_P2
2023/12/05 00:01:32;;;;;;;0.30;0.30;;;;;;;4.53;54.50;102083.59;5011257;28;20410;-82
2023/12/05 00:03:59;;;;;;;6.20;1.20;;;;;;;4.51;54.49;102077.59;5011495;28;20399;-82
2023/12/05 00:06:27;;;;;;;0.40;0.40;;;;;;;4.64;54.14;102090.78;5027631;28;20386;-82
2023/12/05 00:08:53;;;;;;;0.30;0.30;;;;;;;4.64;54.05;102080.28;5027054;28;20433;-83
2023/12/05 00:11:22;;;;;;;3.10;0.90;;;;;;;4.76;54.02;102089.16;5026304;28;20524;-82
2023/12/05 00:13:47;;;;;;;0.80;0.80;;;;;;;4.71;54.18;102084.19;5026681;28;20390;-85
2023/12/05 00:16:13;;;;;;;0.50;0.50;;;;;;;4.77;54.00;102099.59;5011414;28;20393;-85
2023/12/05 00:18:39;;;;;;;0.50;0.50;;;;;;;4.83;53.88;102097.50;5028975;28;20382;-84
2023/12/05 00:21:05;;;;;;;1.00;0.90;;;;;;;4.86;53.96;102103.41;5010388;28;20387;-85
2023/12/05 00:23:34;;;;;;;0.20;0.20;;;;;;;4.88;53.64;102098.91;5028640;28;20397;-86
2023/12/05 00:26:05;;;;;;;0.70;0.70;;;;;;;4.82;53.71;102109.78;5012082;28;20390;-86
2023/12/05 00:28:34;;;;;;;1.88;1.77;;;;;;;4.62;53.86;102097.91;4996747;28;20985;-86
2023/12/05 00:31:00;;;;;;;1.30;0.45;;;;;;;4.52;54.56;102102.91;5028051;28;20391;-85
2023/12/05 00:33:26;;;;;;;0.77;0.77;;;;;;;4.62;54.25;102111.06;5012174;28;20394;-88
2023/12/05 00:35:51;;;;;;;1.70;1.20;;;;;;;4.49;54.31;102099.66;5028264;28;20418;-85
2023/12/05 00:38:17;;;;;;;0.45;0.45;;;;;;;4.48;54.35;102098.78;5027009;28;20452;-87
2023/12/05 00:40:44;;;;;;;0.30;0.30;;;;;;;4.61;54.18;102096.25;5027103;28;20536;-82
2023/12/05 00:43:16;;;;;;;2.00;1.00;;;;;;;4.60;53.99;102084.88;5027531;28;20409;-86
2023/12/05 00:45:41;;;;;;;0.63;0.63;;;;;;;4.60;54.32;102079.63;5028317;28;20390;-82
2023/12/05 00:48:09;;;;;;;1.30;1.30;;;;;;;4.69;53.78;102075.56;5027177;28;20464;-84
2023/12/05 00:50:34;;;;;;;0.77;0.77;;;;;;;4.78;53.80;102071.53;5027663;28;20399;-87
2023/12/05 00:53:03;;;;;;;0.40;0.40;;;;;;;4.60;54.15;102056.00;5027820;28;20391;-88
2023/12/05 00:55:29;;;;;;;0.82;0.82;;;;;;;4.55;54.25;102057.22;5012051;28;20387;-88
2023/12/05 00:57:58;;;;;;;0.30;0.30;;;;;;;4.61;54.25;102054.22;5013335;28;20490;-89
2023/12/05 01:00:24;;;;;;;0.85;0.85;;;;;;;4.56;54.42;102062.38;5032809;28;20383;-88
2023/12/05 01:02:51;;;;;;;0.57;0.57;;;;;;;4.42;54.43;102037.97;5031430;28;20480;-86
2023/12/05 01:05:17;;;;;;;1.23;1.23;;;;;;;4.26;54.86;102024.94;5030893;28;20394;-87
2023/12/05 01:07:43;;;;;;;1.30;1.20;;;;;;;4.25;54.98;102028.50;5027890;28;20402;-87
2023/12/05 01:10:09;;;;;;;0.70;0.70;;;;;;;4.20;54.98;102026.19;5011060;28;20390;-86
2023/12/05 01:12:38;;;;;;;0.65;0.65;;;;;;;4.18;55.04;102033.31;5026169;28;20410;-88
2023/12/05 01:15:04;;;;;;;0.60;0.60;;;;;;;4.06;54.92;102036.69;5010991;28;20405;-89
2023/12/05 01:17:30;;;;;;;0.90;0.90;;;;;;;3.93;55.29;102040.06;5012287;28;20901;-88
2023/12/05 01:19:56;;;;;;;0.70;0.70;;;;;;;3.90;55.29;102039.41;5030840;28;20398;-91
2023/12/05 01:22:24;;;;;;;0.70;0.70;;;;;;;4.02;55.14;102031.63;5032591;28;20390;-88
2023/12/05 01:24:54;;;;;;;0.47;0.47;;;;;;;4.06;54.82;102013.06;5016092;28;20527;-89
2023/12/05 01:27:23;;;;;;;0.52;0.52;;;;;;;4.02;54.83;102017.66;5036435;28;20410;-88
2023/12/05 01:29:49;;;;;;;0.98;0.77;;;;;;;4.07;55.17;102031.34;5041602;28;20390;-88
2023/12/05 01:32:15;;;;;;;0.43;0.43;;;;;;;4.00;54.98;102020.38;5038596;28;20401;-87
2023/12/05 01:34:40;;;;;;;0.30;0.30;;;;;;;3.98;55.10;102008.28;5040722;28;20385;-86
2023/12/05 01:37:06;;;;;;;0.32;0.32;;;;;;;4.04;54.68;102009.72;5046895;28;20374;-89
2023/12/05 01:39:32;;;;;;;0.63;0.63;;;;;;;4.11;54.62;102011.84;5051042;28;20389;-89
2023/12/05 01:41:59;;;;;;;0.60;0.60;;;;;;;4.13;54.58;102009.13;5035854;28;20394;-86
2023/12/05 01:44:25;;;;;;;1.20;1.20;;;;;;;4.08;54.54;102000.69;5034602;28;20434;-87
2023/12/05 01:46:51;;;;;;;0.50;0.50;;;;;;;4.01;54.58;101995.81;5034609;28;20444;-86
2023/12/05 01:49:17;;;;;;;0.20;0.20;;;;;;;4.07;54.99;102002.50;5020808;28;20382;-85
2023/12/05 01:51:46;;;;;;;0.45;0.45;;;;;;;4.22;54.53;101990.19;5042827;28;20391;-87
2023/12/05 01:54:12;;;;;;;0.25;0.25;;;;;;;4.33;54.20;101998.22;5030892;28;20435;-88
2023/12/05 01:56:38;;;;;;;0.60;0.60;;;;;;;4.31;53.98;101988.75;5014242;28;20887;-87
2023/12/05 01:59:05;;;;;;;0.30;0.30;;;;;;;4.25;54.31;101974.25;5029959;28;20400;-87
2023/12/05 02:01:31;;;;;;;0.50;0.50;;;;;;;4.28;54.08;101991.56;5014767;28;20459;-88
2023/12/05 02:03:58;;;;;;;0.50;0.50;;;;;;;4.15;54.14;101983.63;5014606;28;20417;-88
2023/12/05 02:06:26;;;;;;;2.83;2.63;;;;;;;4.06;54.19;101984.22;5038350;28;20384;-90
2023/12/05 02:08:53;;;;;;;0.40;0.40;;;;;;;4.20;54.64;101984.19;5030635;28;20454;-91
2023/12/05 02:11:19;;;;;;;0.40;0.40;;;;;;;4.09;54.31;101977.00;5032779;28;20420;-91
2023/12/05 02:13:46;;;;;;;0.20;0.20;;;;;;;4.16;54.46;101980.06;5030396;28;20424;-90
2023/12/05 02:16:42;;;;;;;0.30;0.30;;;;;;;4.37;54.21;101996.22;5045117;28;20434;-90
2023/12/05 02:19:38;;;;;;;0.30;0.30;;;;;;;4.45;53.43;101986.09;5039947;22;20514;-92
2023/12/05 02:22:29;;;;;;;1.15;0.95;;;;;;;4.38;53.43;101982.19;4994810;28;20400;-90
2023/12/05 02:25:25;;;;;;;1.10;0.70;;;;;;;4.44;53.81;101979.13;5008609;28;20394;-88
2023/12/05 02:27:52;;;;;;;0.13;0.13;;;;;;;4.52;53.69;101971.63;5018674;28;20921;-87
2023/12/05 02:30:28;;;;;;;0.77;0.77;;;;;;;4.53;53.41;101968.03;4994998;28;20423;-87
2023/12/05 02:32:54;;;;;;;0.30;0.17;;;;;;;4.63;53.70;101972.69;5004613;28;21178;-87
2023/12/05 02:35:19;;;;;;;0.20;0.20;;;;;;;4.66;53.28;101964.63;4994657;28;20394;-86
2023/12/05 02:37:53;;;;;;;0.20;0.20;;;;;;;4.61;52.97;101967.56;4999357;28;20394;-85
2023/12/05 02:40:46;;;;;;;0.28;0.28;;;;;;;4.73;53.38;101979.88;5003693;28;20892;-88
2023/12/05 02:43:25;;;;;;;0.17;0.17;;;;;;;4.73;52.83;101977.25;4994022;28;20904;-90
2023/12/05 02:45:53;;;;;;;0.22;0.22;;;;;;;4.75;53.05;101972.75;4992829;28;20428;-90
2023/12/05 02:48:20;;;;;;;0.30;0.30;;;;;;;4.64;53.10;101963.88;5009632;28;20406;-89
2023/12/05 02:50:46;;;;;;;0.60;0.60;;;;;;;4.45;53.71;101958.97;4992823;28;20421;-88
2023/12/05 02:53:11;;;;;;;0.30;0.30;;;;;;;4.35;53.70;101961.38;4992597;28;20430;-89
2023/12/05 02:55:38;;;;;;;0.10;0.10;;;;;;;4.42;53.56;101957.41;4992359;28;20768;-87
2023/12/05 02:58:03;;;;;;;0.50;0.50;;;;;;;4.29;53.68;101946.03;4991487;28;20392;-87
2023/12/05 03:00:29;;;;;;;0.82;0.82;;;;;;;4.26;53.82;101946.22;4992070;28;20390;-88
2023/12/05 03:02:55;;;;;;;0.57;0.57;;;;;;;4.43;53.62;101960.84;4991431;28;20382;-88
2023/12/05 03:05:20;;;;;;;0.27;0.27;;;;;;;4.60;53.28;101971.13;4991343;28;20404;-89
2023/12/05 03:07:46;;;;;;;0.80;0.60;;;;;;;4.64;53.04;101993.59;4989285;28;20528;-89
2023/12/05 03:10:12;;;;;;;0.40;0.40;;;;;;;4.66;52.96;101990.88;4990499;28;20386;-89
2023/12/05 03:12:37;;;;;;;0.10;0.10;;;;;;;4.73;52.94;101977.25;4991481;28;20467;-89
2023/12/05 03:15:03;;;;;;;0.30;0.30;;;;;;;4.78;52.71;101983.03;4992125;28;20397;-89
2023/12/05 03:17:29;;;;;;;0.13;0.13;;;;;;;4.77;52.76;101976.13;5008186;28;20393;-88
2023/12/05 03:19:55;;;;;;;0.50;0.50;;;;;;;4.81;52.89;101962.75;4991740;28;20418;-88
2023/12/05 03:22:20;;;;;;;0.87;0.57;;;;;;;4.86;52.49;101961.53;4992139;28;20508;-89
2023/12/05 03:24:46;;;;;;;0.20;0.20;;;;;;;4.87;52.65;101960.56;4991709;28;20397;-88
2023/12/05 03:27:12;;;;;;;0.30;0.30;;;;;;;4.91;52.43;101964.66;4992000;28;20405;-88
2023/12/05 03:29:38;;;;;;;0.10;0.10;;;;;;;4.89;52.31;101953.44;4991850;28;20390;-88
2023/12/05 03:32:04;;;;;;;0.57;0.57;;;;;;;4.89;52.39;101942.09;4991072;28;20389;-89
2023/12/05 03:34:30;;;;;;;0.30;0.30;;;;;;;4.85;52.49;101938.00;4991962;28;20402;-91
2023/12/05 03:36:55;;;;;;;0.30;0.30;;;;;;;4.79;52.77;101937.44;4992935;28;20466;-92
2023/12/05 03:39:21;;;;;;;1.00;0.98;;;;;;;4.75;52.69;101929.84;4992546;28;20390;-92
2023/12/05 03:41:47;;;;;;;0.30;0.30;;;;;;;4.58;52.51;101916.06;4992885;28;20394;-91
2023/12/05 03:44:13;;;;;;;0.60;0.60;;;;;;;4.50;53.19;101926.25;4993744;28;20796;-89
2023/12/05 03:46:39;;;;;;;0.60;0.60;;;;;;;4.55;53.25;101934.63;4992004;28;20390;-90
2023/12/05 03:49:05;;;;;;;0.50;0.50;;;;;;;4.65;52.69;101947.19;4992122;28;20469;-89
2023/12/05 03:51:30;;;;;;;0.98;0.68;;;;;;;4.65;52.69;101931.44;4991733;28;20489;-89
2023/12/05 03:53:56;;;;;;;0.37;0.37;;;;;;;4.51;53.02;101938.41;4991664;28;20390;-88
2023/12/05 03:56:22;;;;;;;1.50;1.40;;;;;;;4.39;53.14;101949.72;4990030;28;20421;-89
2023/12/05 03:58:48;;;;;;;0.20;0.20;;;;;;;4.35;53.30;101941.19;4989601;28;20905;-89
2023/12/05 04:01:15;;;;;;;0.30;0.30;;;;;;;4.39;53.11;101952.34;4990255;28;20390;-89
2023/12/05 04:03:41;;;;;;;1.90;1.27;;;;;;;4.04;53.32;101946.75;5006367;28;20792;-88
2023/12/05 04:06:07;;;;;;;0.40;0.40;;;;;;;3.78;54.09;101930.84;4990673;28;20401;-88
2023/12/05 04:08:32;;;;;;;0.50;0.50;;;;;;;3.79;53.76;101927.28;4990736;28;20409;-88
2023/12/05 04:10:58;;;;;;;0.23;0.23;;;;;;;3.88;54.05;101939.81;4991748;28;20813;-89
2023/12/05 04:13:23;;;;;;;0.30;0.30;;;;;;;4.09;53.67;101950.75;4991829;28;20497;-88
2023/12/05 04:15:49;;;;;;;0.40;0.40;;;;;;;3.95;53.45;101922.75;4991784;28;20827;-88
2023/12/05 04:18:15;;;;;;;0.82;0.82;;;;;;;3.99;53.70;101932.09;4992942;28;20418;-88
2023/12/05 04:20:41;;;;;;;0.22;0.22;;;;;;;3.87;53.85;101924.16;5001009;28;20377;-90
2023/12/05 04:23:06;;;;;;;0.35;0.35;;;;;;;3.63;54.02;101930.00;5013589;28;20406;-90
2023/12/05 04:25:32;;;;;;;0.60;0.60;;;;;;;3.59;54.42;101928.53;4992841;28;20400;-92
2023/12/05 04:27:58;;;;;;;0.40;0.40;;;;;;;3.67;54.41;101925.41;5007977;28;20812;-91
2023/12/05 04:30:23;;;;;;;0.40;0.30;;;;;;;3.73;53.96;101927.69;4992400;28;20390;-89
2023/12/05 04:32:52;;;;;;;0.63;0.60;;;;;;;3.63;54.09;101907.25;4992497;28;20394;-91
2023/12/05 04:35:18;;;;;;;0.30;0.30;;;;;;;3.62;54.26;101904.75;4995089;28;20401;-92
2023/12/05 04:37:43;;;;;;;0.50;0.50;;;;;;;3.39;54.78;101893.06;4993512;28;20486;-88
2023/12/05 04:40:09;;;;;;;0.40;0.40;;;;;;;3.35;55.10;101891.53;4995722;28;20741;-87
2023/12/05 04:42:35;;;;;;;0.70;0.50;;;;;;;3.53;55.00;101895.66;5005716;28;20389;-87
2023/12/05 04:45:01;;;;;;;0.90;0.80;;;;;;;3.50;54.96;101900.25;4991437;28;20390;-88
2023/12/05 04:47:26;;;;;;;1.00;0.80;;;;;;;3.49;54.54;101894.16;4991305;28;20417;-88
2023/12/05 04:49:52;;;;;;;0.20;0.20;;;;;;;3.43;55.26;101889.28;4990814;28;20433;-88
2023/12/05 04:52:18;;;;;;;0.82;0.82;;;;;;;3.33;55.27;101904.75;4991575;28;20449;-88
2023/12/05 04:54:43;;;;;;;0.50;0.50;;;;;;;3.56;55.11;101912.97;4991855;28;20485;-89
2023/12/05 04:57:09;;;;;;;0.55;0.43;;;;;;;3.82;54.62;101911.38;4990648;28;20390;-87
2023/12/05 04:59:35;;;;;;;0.32;0.32;;;;;;;3.90;54.05;101898.59;4990913;28;20397;-85
2023/12/05 05:02:00;;;;;;;0.45;0.45;;;;;;;3.86;54.17;101907.59;4991110;28;20386;-87
2023/12/05 05:04:29;;;;;;;2.90;1.77;;;;;;;3.91;53.85;101905.53;4990091;28;20425;-87
2023/12/05 05:06:55;;;;;;;0.85;0.85;;;;;;;3.80;53.99;101910.63;4989847;28;20435;-88
2023/12/05 05:09:20;;;;;;;0.60;0.60;;;;;;;3.70;54.53;101906.88;4994349;28;20421;-88
2023/12/05 05:11:46;;;;;;;0.40;0.30;;;;;;;3.78;54.31;101901.97;4994956;28;20440;-92
2023/12/05 05:14:12;;;;;;;0.20;0.20;;;;;;;3.74;54.33;101903.94;4999089;28;20394;-90
2023/12/05 05:16:37;;;;;;;0.63;0.63;;;;;;;3.57;54.82;101893.69;4996073;28;20389;-91
2023/12/05 05:19:03;;;;;;;0.20;0.20;;;;;;;3.60;54.79;101903.97;4997591;28;21008;-92
2023/12/05 05:21:29;;;;;;;0.40;0.40;;;;;;;3.52;54.95;101896.59;4996780;28;20959;-89
2023/12/05 05:23:55;;;;;;;0.40;0.40;;;;;;;3.67;54.65;101886.91;4995657;28;20394;-90
2023/12/05 05:26:21;;;;;;;0.80;0.80;;;;;;;3.70;54.49;101891.16;4995915;28;20432;-89
2023/12/05 05:28:46;;;;;;;1.23;0.73;;;;;;;3.68;54.75;101906.97;4994812;28;20781;-89
2023/12/05 05:31:12;;;;;;;1.40;0.67;;;;;;;3.70;54.47;101891.16;4994353;28;20417;-88
2023/12/05 05:33:38;;;;;;;0.80;0.80;;;;;;;3.70;54.66;101894.59;4996172;28;20394;-89
2023/12/05 05:36:08;;;;;;;0.40;0.40;;;;;;;3.77;54.35;101901.16;4994959;28;20480;-89
2023/12/05 05:38:33;;;;;;;0.13;0.13;;;;;;;3.86;54.37;101901.53;4996111;28;20394;-88
2023/12/05 05:41:06;;;;;;;0.47;0.47;;;;;;;3.75;54.61;101894.31;4998021;28;20398;-93
2023/12/05 05:43:36;;;;;;;0.68;0.38;;;;;;;3.81;54.59;101905.25;5003099;28;20400;-93
2023/12/05 05:46:03;;;;;;;0.90;0.80;;;;;;;3.77;54.78;101893.28;5017446;28;20398;-92
2023/12/05 05:48:29;;;;;;;0.30;0.30;;;;;;;3.83;54.64;101895.53;4998313;28;20432;-93
2023/12/05 05:50:58;;;;;;;1.27;0.82;;;;;;;3.81;54.64;101889.53;5004812;28;20429;-88
2023/12/05 05:53:24;;;;;;;0.50;0.50;;;;;;;3.92;54.81;101878.34;5000435;28;20394;-92
2023/12/05 05:55:49;;;;;;;0.40;0.40;;;;;;;3.80;54.64;101866.03;5008010;28;20404;-92
2023/12/05 05:58:15;;;;;;;1.13;1.02;;;;;;;3.75;54.50;101889.91;5016605;28;20378;-91
2023/12/05 06:00:44;;;;;;;0.70;0.70;;;;;;;3.75;54.83;101900.41;5019003;28;20469;-90
2023/12/05 06:03:10;;;;;;;0.70;0.70;;;;;;;3.84;54.62;101899.00;5019073;28;20386;-90
2023/12/05 06:05:41;;;;;;;0.40;0.35;;;;;;;3.97;54.51;101894.63;5019292;28;20412;-90
2023/12/05 06:08:06;;;;;;;0.25;0.25;;;;;;;3.87;54.62;101888.31;5018239;28;20425;-90
2023/12/05 06:10:36;;;;;;;0.33;0.33;;;;;;;3.85;54.45;101890.16;5017059;28;20485;-93
2023/12/05 06:13:02;;;;;;;1.00;1.00;;;;;;;3.75;54.73;101889.91;5029933;28;20412;-90
2023/12/05 06:15:27;;;;;;;0.80;0.80;;;;;;;3.73;55.21;101885.72;5006676;28;20390;-91
2023/12/05 06:17:55;;;;;;;0.73;0.73;;;;;;;3.83;54.67;101876.31;5017509;28;20488;-88
2023/12/05 06:20:22;;;;;;;0.50;0.32;;;;;;;3.72;54.94;101869.13;5000734;28;20390;-90
2023/12/05 06:22:50;;;;;;;0.50;0.50;;;;;;;3.62;55.32;101894.25;4983809;28;20398;-89
2023/12/05 06:25:16;;;;;;;0.40;0.40;;;;;;;3.63;55.25;101886.28;5014808;28;20417;-92
2023/12/05 06:27:44;;;;;;;0.90;0.90;;;;;;;3.68;55.08;101878.13;5001868;28;20479;-94
2023/12/05 06:30:11;;;;;;;0.80;0.80;;;;;;;3.70;55.26;101878.03;4996507;28;20398;-88
2023/12/05 06:32:58;;;;;;;0.55;0.55;;;;;;;3.77;55.05;101855.72;4998660;28;20389;-90
2023/12/05 06:35:24;;;;;;;0.60;0.60;;;;;;;3.71;55.13;101864.84;4995683;28;20401;-90
2023/12/05 06:37:53;;;;;;;0.30;0.30;;;;;;;3.57;55.38;101864.84;4994747;28;20911;-87
2023/12/05 06:40:18;;;;;;;0.30;0.30;;;;;;;3.63;55.50;101878.41;4996600;28;20432;-84
2023/12/05 06:42:45;;;;;;;0.20;0.20;;;;;;;3.66;55.27;101884.41;5020614;28;20390;-90
2023/12/05 06:45:11;;;;;;;0.65;0.47;;;;;;;3.63;55.37;101888.06;5016244;28;20398;-91
2023/12/05 06:47:38;;;;;;;0.50;0.50;;;;;;;3.68;55.30;101885.16;4998771;28;20413;-89
2023/12/05 06:50:24;;;;;;;0.28;0.28;;;;;;;3.86;54.87;101891.88;5001493;28;20398;-90
2023/12/05 06:52:51;;;;;;;0.40;0.40;;;;;;;3.94;54.78;101891.38;4999267;28;20401;-91
2023/12/05 06:55:17;;;;;;;0.43;0.43;;;;;;;3.96;54.67;101892.97;5003699;28;20393;-92
2023/12/05 06:57:43;;;;;;;1.48;0.70;;;;;;;4.00;54.56;101891.81;5009574;28;20413;-91
2023/12/05 07:00:11;;;;;;;0.22;0.22;;;;;;;4.02;54.62;101897.81;5016773;28;20393;-89
2023/12/05 07:02:36;;;;;;;0.50;0.50;;;;;;;3.75;54.85;101903.03;5013964;28;20374;-88
2023/12/05 07:05:04;;;;;;;0.30;0.30;;;;;;;3.77;55.01;101916.06;5015189;28;20459;-90
2023/12/05 07:07:30;;;;;;;1.20;1.10;;;;;;;3.83;54.81;101923.53;5015980;28;20425;-90
2023/12/05 07:09:59;;;;;;;0.90;0.75;;;;;;;3.87;54.92;101926.78;5015316;28;20394;-89
2023/12/05 07:12:24;;;;;;;0.82;0.82;;;;;;;3.82;55.07;101927.09;5016039;28;20397;-92
2023/12/05 07:14:56;;;;;;;0.60;0.60;;;;;;;3.75;54.74;101904.81;4999482;28;20404;-94
2023/12/05 07:17:22;;;;;;;0.50;0.50;;;;;;;3.86;54.81;101904.16;5001379;28;20393;-92
2023/12/05 07:19:52;;;;;;;0.75;0.75;;;;;;;3.81;54.77;101910.50;5002407;28;20497;-93
2023/12/05 07:22:18;;;;;;;1.90;1.40;;;;;;;3.59;55.12;101908.38;4984908;28;20404;-92
2023/12/05 07:24:44;;;;;;;0.50;0.50;;;;;;;3.59;55.42;101905.75;4983216;28;20409;-91
2023/12/05 07:27:10;;;;;;;0.40;0.40;;;;;;;3.70;55.10;101909.50;4951179;28;20396;-88
2023/12/05 07:29:36;;;;;;;0.47;0.47;;;;;;;3.77;55.00;101901.16;4988640;28;20498;-89
2023/12/05 07:32:01;;;;;;;0.40;0.40;;;;;;;3.83;54.79;101900.78;4982629;28;20821;-88
2023/12/05 07:34:27;;;;;;;2.30;0.70;;;;;;;3.83;54.46;101907.78;4994511;28;20396;-89
2023/12/05 07:36:53;;;;;;;0.20;0.20;;;;;;;3.82;54.51;101906.94;4984975;28;20434;-89
2023/12/05 07:39:19;;;;;;;0.20;0.20;;;;;;;3.96;54.56;101910.47;4984534;28;20391;-91
2023/12/05 07:41:45;;;;;;;0.30;0.30;;;;;;;3.98;54.34;101906.81;4985247;28;20399;-89
2023/12/05 07:44:14;;;;;;;0.80;0.80;;;;;;;3.90;54.65;101897.75;4982684;28;20406;-88
2023/12/05 07:46:42;;;;;;;0.45;0.45;;;;;;;3.89;54.57;101886.44;4979126;28;20425;-89
2023/12/05 07:49:09;;;;;;;0.30;0.30;;;;;;;3.91;54.57;101879.31;4979612;28;20491;-92
2023/12/05 07:51:36;;;;;;;0.90;0.90;;;;;;;3.97;54.23;101880.69;4996217;28;20398;-90
2023/12/05 07:54:05;;;;;;;1.20;1.17;;;;;;;3.99;54.47;101877.00;5001621;28;20389;-90
2023/12/05 07:56:31;;;;;;;0.45;0.45;;;;;;;4.02;54.24;101891.72;5021111;28;20428;-91
2023/12/05 07:58:59;;;;;;;0.35;0.35;;;;;;;4.06;54.10;101901.09;5010689;28;20412;-89
2023/12/05 08:01:29;;;;;;;0.30;0.30;;;;;;;3.95;54.46;101896.53;5025895;28;20380;-90
2023/12/05 08:03:57;;;;;;;0.50;0.50;;;;;;;4.07;54.00;101883.53;5023247;28;20386;-92
2023/12/05 08:06:24;;;;;;;0.50;0.50;;;;;;;4.26;54.04;101888.47;5023513;28;20414;-91
2023/12/05 08:08:51;;;;;;;0.30;0.30;;;;;;;4.23;53.87;101881.63;5027706;28;20430;-89
2023/12/05 08:11:33;;;;;;;0.20;0.20;;;;;;;4.24;54.02;101885.09;5023185;28;20424;-90
2023/12/05 08:13:59;;;;;;;0.40;0.30;;;;;;;4.29;53.74;101880.41;5021731;28;20488;-91
2023/12/05 08:16:24;;;;;;;0.40;0.40;;;;;;;4.43;53.62;101888.22;5023309;28;20451;-87
2023/12/05 08:18:51;;;;;;;1.75;0.70;;;;;;;4.46;53.46;101881.91;5020989;28;20832;-92
2023/12/05 08:21:19;;;;;;;0.30;0.30;;;;;;;4.45;53.35;101891.56;5009094;28;20420;-89
2023/12/05 08:23:44;;;;;;;0.47;0.47;;;;;;;4.38;53.65;101878.00;5003801;28;20414;-89
2023/12/05 08:26:11;;;;;;;0.80;0.80;;;;;;;4.30;53.84;101876.81;5008399;28;20394;-85
2023/12/05 08:28:37;;;;;;;0.87;0.87;;;;;;;4.31;53.51;101887.22;5001404;28;20409;-84
2023/12/05 08:31:04;;;;;;;0.77;0.77;;;;;;;4.40;53.81;101877.91;5002585;28;20426;-89
2023/12/05 08:33:29;;;;;;;1.20;1.20;;;;;;;4.50;53.61;101883.38;4982368;28;20398;-87
2023/12/05 08:35:55;;;;;;;0.20;0.20;;;;;;;4.52;53.27;101882.34;4996326;28;20397;-86
2023/12/05 08:38:24;;;;;;;0.40;0.40;;;;;;;4.46;53.26;101874.03;5005412;28;20400;-88
2023/12/05 08:40:51;;;;;;;0.20;0.20;;;;;;;4.45;53.24;101872.31;4949905;28;20418;-86
2023/12/05 08:43:17;;;;;;;0.60;0.60;;;;;;;4.39;53.32;101873.59;4996052;28;20409;-88
2023/12/05 08:45:43;;;;;;;0.50;0.50;;;;;;;4.45;53.13;101853.94;4998523;28;20486;-88
2023/12/05 08:48:09;;;;;;;0.20;0.20;;;;;;;4.53;52.90;101863.00;5003062;28;20837;-88
2023/12/05 08:50:36;;;;;;;0.85;0.82;;;;;;;4.54;52.87;101858.63;4980205;28;20426;-86
2023/12/05 08:53:02;;;;;;;0.60;0.53;;;;;;;4.58;52.98;101865.34;4996636;28;20494;-87
2023/12/05 08:55:28;;;;;;;0.70;0.70;;;;;;;4.54;52.95;101866.50;4995465;28;20382;-85
2023/12/05 08:57:55;;;;;;;0.30;0.30;;;;;;;4.61;52.96;101862.50;4995809;28;20421;-87
2023/12/05 09:00:21;;;;;;;0.50;0.50;;;;;;;4.64;52.92;101864.09;4995079;28;20429;-85
2023/12/05 09:02:47;;;;;;;0.90;0.90;;;;;;;4.74;52.33;101855.47;4995268;28;20777;-86
2023/12/05 09:05:14;;;;;;;0.40;0.40;;;;;;;4.63;52.57;101847.50;4997318;28;20468;-86
2023/12/05 09:07:40;;;;;;;0.70;0.70;;;;;;;4.72;52.81;101853.91;4996477;28;20437;-85
2023/12/05 09:10:06;;;;;;;0.20;0.20;;;;;;;4.66;52.35;101860.41;4994595;28;20386;-86
2023/12/05 09:12:32;;;;;;;0.32;0.32;;;;;;;4.68;52.75;101860.28;4994669;28;20982;-86
2023/12/05 09:14:58;;;;;;;1.90;1.80;;;;;;;4.76;52.04;101858.00;4978273;28;20424;-86
2023/12/05 09:17:24;;;;;;;0.37;0.37;;;;;;;4.89;52.16;101852.75;4992623;28;20385;-86
2023/12/05 09:19:50;;;;;;;0.40;0.40;;;;;;;5.03;52.21;101849.19;4992608;28;20416;-86
2023/12/05 09:22:17;;;;;;;0.40;0.40;;;;;;;4.87;52.31;101834.47;5008351;28;20865;-87
2023/12/05 09:24:45;;;;;;;0.30;0.30;;;;;;;4.94;51.97;101824.38;4993434;28;20942;-86
2023/12/05 09:27:12;;;;;;;0.28;0.28;;;;;;;5.08;51.70;101833.94;4992149;28;20425;-88
2023/12/05 09:29:38;;;;;;;0.35;0.35;;;;;;;5.21;51.91;101834.75;4994199;28;20816;-88
2023/12/05 09:32:04;;;;;;;0.40;0.40;;;;;;;5.16;51.76;101834.25;4992437;28;20413;-88
2023/12/05 09:34:30;;;;;;;0.27;0.27;;;;;;;5.26;51.88;101822.16;4993894;28;20409;-88
2023/12/05 09:36:56;;;;;;;0.20;0.20;;;;;;;5.40;51.66;101815.06;4993359;28;21180;-87
2023/12/05 09:39:22;;;;;;;0.30;0.30;;;;;;;5.35;51.36;101794.38;4989680;28;20382;-87
2023/12/05 09:41:52;;;;;;;0.50;0.50;;;;;;;5.32;51.25;101797.19;4992348;28;20460;-88
2023/12/05 09:44:21;;;;;;;0.52;0.52;;;;;;;5.08;51.25;101794.53;4992104;28;20429;-89
2023/12/05 09:46:52;;;;;;;0.80;0.80;;;;;;;5.10;51.33;101780.31;4993469;28;20390;-87
2023/12/05 09:49:18;;;;;;;0.20;0.20;;;;;;;5.29;51.40;101781.63;4995704;28;20449;-88
2023/12/05 09:51:46;;;;;;;0.20;0.20;;;;;;;5.31;51.12;101777.09;4996793;28;20417;-87
2023/12/05 09:54:13;;;;;;;0.63;0.50;;;;;;;5.35;51.24;101778.59;4999028;28;20410;-87
2023/12/05 09:56:39;;;;;;;0.35;0.35;;;;;;;5.31;50.98;101770.09;4998003;28;20397;-88
2023/12/05 09:59:05;;;;;;;0.40;0.30;;;;;;;5.43;50.89;101749.94;4998671;28;20409;-87
2023/12/05 10:01:33;;;;;;;0.70;0.70;;;;;;;5.42;50.39;101740.38;4982672;28;20410;-87
2023/12/05 10:04:01;;;;;;;0.80;0.80;;;;;;;5.53;50.67;101750.97;5014181;28;20396;-87
2023/12/05 10:06:27;;;;;;;0.50;0.40;;;;;;;5.68;50.34;101729.75;4997510;28;20477;-88
2023/12/05 10:08:57;;;;;;;0.20;0.20;;;;;;;5.77;50.50;101725.59;5000845;28;20402;-87
2023/12/05 10:11:52;;;;;;;0.30;0.30;;;;;;;5.80;49.97;101720.09;4996434;28;20833;-88
2023/12/05 10:14:18;;;;;;;0.40;0.40;;;;;;;5.84;50.23;101717.13;4997651;28;20432;-88
2023/12/05 10:16:45;;;;;;;1.10;1.00;;;;;;;5.90;49.95;101719.28;4995574;28;20797;-87
2023/12/05 10:19:12;;;;;;;0.30;0.30;;;;;;;5.93;49.63;101711.19;4994101;28;20860;-88
2023/12/05 10:21:39;;;;;;;1.10;1.10;;;;;;;5.84;49.32;101705.78;4997229;28;20472;-87
2023/12/05 10:24:05;;;;;;;0.50;0.50;;;;;;;5.80;49.67;101707.78;4986324;28;20538;-88
2023/12/05 10:26:31;;;;;;;0.50;0.50;;;;;;;5.88;49.29;101708.03;4981997;28;20388;-86
2023/12/05 10:28:56;;;;;;;0.25;0.25;;;;;;;5.83;49.61;101691.75;4998067;28;20401;-84
2023/12/05 10:31:22;;;;;;;0.68;0.68;;;;;;;5.98;49.39;101689.81;4998677;28;20768;-85
2023/12/05 10:33:49;;;;;;;0.40;0.40;;;;;;;6.00;49.40;101687.09;4993460;28;20481;-86
2023/12/05 10:36:16;;;;;;;1.25;1.15;;;;;;;6.10;49.10;101698.56;4995733;28;20390;-86
2023/12/05 10:38:46;;;;;;;0.50;0.50;;;;;;;6.15;49.16;101690.34;4993991;28;20393;-86
2023/12/05 10:41:20;;;;;;;0.22;0.22;;;;;;;6.26;49.07;101690.34;4995580;28;20401;-86
2023/12/05 10:43:55;;;;;;;0.30;0.30;;;;;;;6.41;48.92;101685.69;4997881;28;20406;-88
2023/12/05 10:46:23;;;;;;;0.32;0.32;;;;;;;6.41;48.59;101678.63;4998248;28;20446;-86
2023/12/05 10:48:50;;;;;;;0.60;0.60;;;;;;;6.49;49.06;101670.13;4980011;28;20417;-87
2023/12/05 10:51:19;;;;;;;0.60;0.60;;;;;;;6.62;48.48;101662.94;5001975;28;20390;-85
2023/12/05 10:53:45;;;;;;;0.30;0.25;;;;;;;6.69;48.48;101666.75;5011451;28;20409;-88
2023/12/05 10:56:15;;;;;;;0.27;0.27;;;;;;;6.69;48.34;101663.28;4997256;28;20382;-87
2023/12/05 10:58:42;;;;;;;0.50;0.50;;;;;;;6.76;48.54;101669.75;4996583;28;20382;-88
2023/12/05 11:01:13;;;;;;;0.30;0.30;;;;;;;6.83;48.44;101670.94;4996778;28;20390;-86
2023/12/05 11:03:40;;;;;;;4.00;0.80;;;;;;;6.81;48.32;101664.13;4994820;28;20772;-88
2023/12/05 11:06:09;;;;;;;0.90;0.90;;;;;;;6.77;48.49;101666.19;4997242;28;20398;-87
2023/12/05 11:08:36;;;;;;;0.50;0.50;;;;;;;6.92;48.12;101668.56;4980428;28;20414;-86
2023/12/05 11:11:03;;;;;;;0.30;0.30;;;;;;;6.99;47.98;101667.09;4994288;28;20398;-87
2023/12/05 11:13:34;;;;;;;0.60;0.60;;;;;;;6.88;47.98;101681.13;4996148;28;20382;-88
2023/12/05 11:16:13;;;;;;;0.55;0.55;;;;;;;6.94;48.04;101683.28;4977565;28;20769;-89
2023/12/05 11:18:40;;;;;;;3.00;2.80;;;;;;;6.98;48.05;101681.22;4993265;28;20429;-87
2023/12/05 11:21:11;;;;;;;1.10;0.50;;;;;;;7.02;47.75;101669.47;4993969;28;20480;-87
2023/12/05 11:24:12;;;;;;;1.10;1.10;;;;;;;7.06;47.69;101663.00;5009304;28;20389;-87
2023/12/05 11:26:48;;;;;;;0.28;0.28;;;;;;;7.10;47.57;101664.44;4996301;28;20397;-88
2023/12/05 11:29:29;;;;;;;0.35;0.35;;;;;;;7.03;47.41;101650.06;5012604;28;20774;-89
2023/12/05 11:32:20;;;;;;;0.38;0.38;;;;;;;7.08;47.27;101646.09;5012015;28;20393;-87
2023/12/05 11:35:11;;;;;;;0.65;0.65;;;;;;;7.12;47.36;101648.50;4993277;28;20409;-87
2023/12/05 11:38:01;;;;;;;1.53;1.43;;;;;;;7.06;47.22;101653.28;4997726;28;20455;-88